MetarQuiz.com

1 / 10

KJFK 251913Z 33018G25KT 8SM FEW050 BKN075 13/05 A3003 RMK AO2 PK WND 34037/1856 SLP169 T01280045=